sensor_id;sensor_type;location;lat;lon;timestamp;temperature;humidity
33580;DHT22;19909;43.644;-79.438;2023-03-01T00:01:06;15.70;35.80
33580;DHT22;19909;43.644;-79.438;2023-03-01T00:03:34;15.70;35.80
33580;DHT22;19909;43.644;-79.438;2023-03-01T00:06:01;15.70;36.00
33580;DHT22;19909;43.644;-79.438;2023-03-01T00:08:28;15.60;35.90
33580;DHT22;19909;43.644;-79.438;2023-03-01T00:11:04;15.70;35.80
33580;DHT22;19909;43.644;-79.438;2023-03-01T00:13:30;15.70;35.90
33580;DHT22;19909;43.644;-79.438;2023-03-01T00:15:56;15.70;35.90
33580;DHT22;19909;43.644;-79.438;2023-03-01T00:18:23;15.70;35.90
33580;DHT22;19909;43.644;-79.438;2023-03-01T00:20:51;15.70;35.90
33580;DHT22;19909;43.644;-79.438;2023-03-01T00:23:17;15.60;36.00
33580;DHT22;19909;43.644;-79.438;2023-03-01T00:25:44;15.70;36.00
33580;DHT22;19909;43.644;-79.438;2023-03-01T00:28:10;15.70;35.90
33580;DHT22;19909;43.644;-79.438;2023-03-01T00:30:36;15.70;35.90
33580;DHT22;19909;43.644;-79.438;2023-03-01T00:33:02;15.70;35.90
33580;DHT22;19909;43.644;-79.438;2023-03-01T00:35:28;15.70;36.00
33580;DHT22;19909;43.644;-79.438;2023-03-01T00:37:57;15.60;36.00
33580;DHT22;19909;43.644;-79.438;2023-03-01T00:40:24;15.70;35.90
33580;DHT22;19909;43.644;-79.438;2023-03-01T00:42:51;15.70;35.90
33580;DHT22;19909;43.644;-79.438;2023-03-01T00:45:17;15.70;35.90
33580;DHT22;19909;43.644;-79.438;2023-03-01T00:47:43;15.70;35.80
33580;DHT22;19909;43.644;-79.438;2023-03-01T00:50:10;15.70;35.80
33580;DHT22;19909;43.644;-79.438;2023-03-01T00:52:37;15.70;36.00
33580;DHT22;19909;43.644;-79.438;2023-03-01T00:55:04;15.70;36.00
33580;DHT22;19909;43.644;-79.438;2023-03-01T00:57:31;15.70;35.90
33580;DHT22;19909;43.644;-79.438;2023-03-01T00:59:57;15.70;35.80
33580;DHT22;19909;43.644;-79.438;2023-03-01T01:02:23;15.70;35.80
33580;DHT22;19909;43.644;-79.438;2023-03-01T01:04:50;15.60;35.80
33580;DHT22;19909;43.644;-79.438;2023-03-01T01:07:17;15.60;35.90
33580;DHT22;19909;43.644;-79.438;2023-03-01T01:09:43;15.60;35.90
33580;DHT22;19909;43.644;-79.438;2023-03-01T01:12:09;15.60;35.80
33580;DHT22;19909;43.644;-79.438;2023-03-01T01:14:36;15.60;35.80
33580;DHT22;19909;43.644;-79.438;2023-03-01T01:17:02;15.60;35.80
33580;DHT22;19909;43.644;-79.438;2023-03-01T01:19:28;15.60;35.90
33580;DHT22;19909;43.644;-79.438;2023-03-01T01:21:54;15.60;35.80
33580;DHT22;19909;43.644;-79.438;2023-03-01T01:24:20;15.60;35.90
33580;DHT22;19909;43.644;-79.438;2023-03-01T01:26:47;15.60;35.90
33580;DHT22;19909;43.644;-79.438;2023-03-01T01:29:13;15.60;35.90
33580;DHT22;19909;43.644;-79.438;2023-03-01T01:31:41;15.60;35.90
33580;DHT22;19909;43.644;-79.438;2023-03-01T01:34:16;15.60;35.90
33580;DHT22;19909;43.644;-79.438;2023-03-01T01:36:43;15.60;36.00
33580;DHT22;19909;43.644;-79.438;2023-03-01T01:39:10;15.60;36.00
33580;DHT22;19909;43.644;-79.438;2023-03-01T01:41:41;15.60;35.90
33580;DHT22;19909;43.644;-79.438;2023-03-01T01:44:25;15.70;36.00
33580;DHT22;19909;43.644;-79.438;2023-03-01T01:47:05;15.60;35.80
33580;DHT22;19909;43.644;-79.438;2023-03-01T01:49:44;15.60;35.90
33580;DHT22;19909;43.644;-79.438;2023-03-01T01:57:16;15.60;35.90
33580;DHT22;19909;43.644;-79.438;2023-03-01T01:59:47;15.60;36.00
33580;DHT22;19909;43.644;-79.438;2023-03-01T02:02:14;15.60;36.30
33580;DHT22;19909;43.644;-79.438;2023-03-01T02:04:41;15.60;36.00
33580;DHT22;19909;43.644;-79.438;2023-03-01T02:07:17;15.60;36.00
33580;DHT22;19909;43.644;-79.438;2023-03-01T02:09:48;15.60;36.00
33580;DHT22;19909;43.644;-79.438;2023-03-01T02:12:23;15.60;35.90
33580;DHT22;19909;43.644;-79.438;2023-03-01T02:14:50;15.60;36.00
33580;DHT22;19909;43.644;-79.438;2023-03-01T02:17:17;15.60;35.90
33580;DHT22;19909;43.644;-79.438;2023-03-01T02:22:20;15.60;36.00
33580;DHT22;19909;43.644;-79.438;2023-03-01T02:30:15;15.60;36.00
33580;DHT22;19909;43.644;-79.438;2023-03-01T02:32:42;15.60;36.00
33580;DHT22;19909;43.644;-79.438;2023-03-01T02:35:12;15.70;36.10
33580;DHT22;19909;43.644;-79.438;2023-03-01T02:37:39;15.60;36.10
33580;DHT22;19909;43.644;-79.438;2023-03-01T02:40:14;15.60;36.00
33580;DHT22;19909;43.644;-79.438;2023-03-01T02:42:51;15.60;36.00
33580;DHT22;19909;43.644;-79.438;2023-03-01T02:45:18;15.60;36.00
33580;DHT22;19909;43.644;-79.438;2023-03-01T02:47:44;15.60;36.00
33580;DHT22;19909;43.644;-79.438;2023-03-01T02:55:38;15.60;36.10
33580;DHT22;19909;43.644;-79.438;2023-03-01T02:58:05;15.60;36.00
33580;DHT22;19909;43.644;-79.438;2023-03-01T03:00:42;15.60;36.00
33580;DHT22;19909;43.644;-79.438;2023-03-01T03:03:14;15.60;36.10
33580;DHT22;19909;43.644;-79.438;2023-03-01T03:05:41;15.60;36.10
33580;DHT22;19909;43.644;-79.438;2023-03-01T03:08:08;15.60;36.10
33580;DHT22;19909;43.644;-79.438;2023-03-01T03:10:36;15.60;36.10
33580;DHT22;19909;43.644;-79.438;2023-03-01T03:13:12;15.60;36.10
33580;DHT22;19909;43.644;-79.438;2023-03-01T03:15:39;15.60;36.10
33580;DHT22;19909;43.644;-79.438;2023-03-01T03:18:10;15.60;36.10
33580;DHT22;19909;43.644;-79.438;2023-03-01T03:20:38;15.60;36.10
33580;DHT22;19909;43.644;-79.438;2023-03-01T03:23:05;15.60;36.10
33580;DHT22;19909;43.644;-79.438;2023-03-01T03:25:31;15.60;36.00
33580;DHT22;19909;43.644;-79.438;2023-03-01T03:27:58;15.60;36.00
33580;DHT22;19909;43.644;-79.438;2023-03-01T03:30:31;15.60;36.00
33580;DHT22;19909;43.644;-79.438;2023-03-01T03:32:58;15.60;36.10
33580;DHT22;19909;43.644;-79.438;2023-03-01T03:35:28;15.60;36.20
33580;DHT22;19909;43.644;-79.438;2023-03-01T03:37:58;15.60;36.20
33580;DHT22;19909;43.644;-79.438;2023-03-01T03:40:37;15.60;36.20
33580;DHT22;19909;43.644;-79.438;2023-03-01T03:43:04;15.60;36.10
33580;DHT22;19909;43.644;-79.438;2023-03-01T03:45:30;15.50;36.00
33580;DHT22;19909;43.644;-79.438;2023-03-01T03:47:59;15.60;36.10
33580;DHT22;19909;43.644;-79.438;2023-03-01T03:50:26;15.60;36.20
33580;DHT22;19909;43.644;-79.438;2023-03-01T03:52:52;15.60;36.30
33580;DHT22;19909;43.644;-79.438;2023-03-01T03:55:19;15.60;36.10
33580;DHT22;19909;43.644;-79.438;2023-03-01T03:57:47;15.60;36.10
33580;DHT22;19909;43.644;-79.438;2023-03-01T04:00:23;15.60;36.10
33580;DHT22;19909;43.644;-79.438;2023-03-01T04:02:50;15.60;36.20
33580;DHT22;19909;43.644;-79.438;2023-03-01T04:05:18;15.60;36.20
33580;DHT22;19909;43.644;-79.438;2023-03-01T04:07:45;15.60;36.80
33580;DHT22;19909;43.644;-79.438;2023-03-01T04:10:14;15.60;36.10
33580;DHT22;19909;43.644;-79.438;2023-03-01T04:12:41;15.60;36.10
33580;DHT22;19909;43.644;-79.438;2023-03-01T04:15:10;15.50;36.00
33580;DHT22;19909;43.644;-79.438;2023-03-01T04:17:40;15.60;36.20
33580;DHT22;19909;43.644;-79.438;2023-03-01T04:20:09;15.60;36.10
33580;DHT22;19909;43.644;-79.438;2023-03-01T04:22:38;15.60;36.20
33580;DHT22;19909;43.644;-79.438;2023-03-01T04:25:04;15.50;36.10
33580;DHT22;19909;43.644;-79.438;2023-03-01T04:27:35;15.60;36.20
33580;DHT22;19909;43.644;-79.438;2023-03-01T04:30:03;15.60;36.00
33580;DHT22;19909;43.644;-79.438;2023-03-01T04:32:29;15.60;36.00
33580;DHT22;19909;43.644;-79.438;2023-03-01T04:34:55;15.60;36.10
33580;DHT22;19909;43.644;-79.438;2023-03-01T04:37:21;15.60;36.20
33580;DHT22;19909;43.644;-79.438;2023-03-01T04:39:48;15.60;36.10
33580;DHT22;19909;43.644;-79.438;2023-03-01T04:42:15;15.60;36.10
33580;DHT22;19909;43.644;-79.438;2023-03-01T04:44:43;15.60;36.60
33580;DHT22;19909;43.644;-79.438;2023-03-01T04:47:09;15.60;36.10
33580;DHT22;19909;43.644;-79.438;2023-03-01T04:49:36;15.60;36.20
33580;DHT22;19909;43.644;-79.438;2023-03-01T04:52:03;15.60;36.30
33580;DHT22;19909;43.644;-79.438;2023-03-01T04:54:32;15.60;36.30
33580;DHT22;19909;43.644;-79.438;2023-03-01T04:56:59;15.60;36.10
33580;DHT22;19909;43.644;-79.438;2023-03-01T04:59:25;15.60;36.00
33580;DHT22;19909;43.644;-79.438;2023-03-01T05:01:52;15.60;36.00
33580;DHT22;19909;43.644;-79.438;2023-03-01T05:04:22;15.60;36.10
33580;DHT22;19909;43.644;-79.438;2023-03-01T05:06:48;15.60;36.20
33580;DHT22;19909;43.644;-79.438;2023-03-01T05:09:15;15.60;36.20
33580;DHT22;19909;43.644;-79.438;2023-03-01T05:11:41;15.60;36.10
33580;DHT22;19909;43.644;-79.438;2023-03-01T05:14:09;15.60;36.10
33580;DHT22;19909;43.644;-79.438;2023-03-01T05:16:35;15.60;36.10
33580;DHT22;19909;43.644;-79.438;2023-03-01T05:19:03;15.60;36.10
33580;DHT22;19909;43.644;-79.438;2023-03-01T05:21:42;15.60;36.20
33580;DHT22;19909;43.644;-79.438;2023-03-01T05:24:27;15.60;36.20
33580;DHT22;19909;43.644;-79.438;2023-03-01T05:26:54;15.60;36.80
33580;DHT22;19909;43.644;-79.438;2023-03-01T05:29:22;15.60;36.20
33580;DHT22;19909;43.644;-79.438;2023-03-01T05:31:55;15.60;36.10
33580;DHT22;19909;43.644;-79.438;2023-03-01T05:34:26;15.60;36.10
33580;DHT22;19909;43.644;-79.438;2023-03-01T05:36:53;15.60;36.20
33580;DHT22;19909;43.644;-79.438;2023-03-01T05:39:20;15.60;36.30
33580;DHT22;19909;43.644;-79.438;2023-03-01T05:41:54;15.60;36.40
33580;DHT22;19909;43.644;-79.438;2023-03-01T05:44:20;15.60;36.10
33580;DHT22;19909;43.644;-79.438;2023-03-01T05:46:47;15.60;36.10
33580;DHT22;19909;43.644;-79.438;2023-03-01T05:49:14;15.60;36.20
33580;DHT22;19909;43.644;-79.438;2023-03-01T05:51:41;15.60;36.10
33580;DHT22;19909;43.644;-79.438;2023-03-01T05:54:09;15.60;36.10
33580;DHT22;19909;43.644;-79.438;2023-03-01T05:56:36;15.60;36.20
33580;DHT22;19909;43.644;-79.438;2023-03-01T05:59:03;15.60;36.10
33580;DHT22;19909;43.644;-79.438;2023-03-01T06:01:34;15.60;36.10
33580;DHT22;19909;43.644;-79.438;2023-03-01T06:04:01;15.60;36.20
33580;DHT22;19909;43.644;-79.438;2023-03-01T06:06:28;15.60;36.30
33580;DHT22;19909;43.644;-79.438;2023-03-01T06:08:55;15.50;36.20
33580;DHT22;19909;43.644;-79.438;2023-03-01T06:11:21;15.50;36.20
33580;DHT22;19909;43.644;-79.438;2023-03-01T06:13:47;15.60;36.20
33580;DHT22;19909;43.644;-79.438;2023-03-01T06:16:14;15.60;36.20
33580;DHT22;19909;43.644;-79.438;2023-03-01T06:18:40;15.60;36.20
33580;DHT22;19909;43.644;-79.438;2023-03-01T06:21:08;15.60;36.20
33580;DHT22;19909;43.644;-79.438;2023-03-01T06:23:34;15.50;36.20
33580;DHT22;19909;43.644;-79.438;2023-03-01T06:26:04;15.60;36.20
33580;DHT22;19909;43.644;-79.438;2023-03-01T06:28:30;15.60;36.20
33580;DHT22;19909;43.644;-79.438;2023-03-01T06:30:57;15.50;36.10
33580;DHT22;19909;43.644;-79.438;2023-03-01T06:33:23;15.50;36.10
33580;DHT22;19909;43.644;-79.438;2023-03-01T06:35:51;15.60;36.30
33580;DHT22;19909;43.644;-79.438;2023-03-01T06:38:17;15.60;36.30
33580;DHT22;19909;43.644;-79.438;2023-03-01T06:40:45;15.50;36.10
33580;DHT22;19909;43.644;-79.438;2023-03-01T06:43:17;15.60;36.10
33580;DHT22;19909;43.644;-79.438;2023-03-01T06:45:43;15.60;36.20
33580;DHT22;19909;43.644;-79.438;2023-03-01T06:48:09;15.50;36.10
33580;DHT22;19909;43.644;-79.438;2023-03-01T06:50:35;15.60;36.20
33580;DHT22;19909;43.644;-79.438;2023-03-01T06:53:03;15.50;36.20
33580;DHT22;19909;43.644;-79.438;2023-03-01T06:55:29;15.50;36.20
33580;DHT22;19909;43.644;-79.438;2023-03-01T06:57:57;15.50;36.20
33580;DHT22;19909;43.644;-79.438;2023-03-01T07:00:24;15.50;36.20
33580;DHT22;19909;43.644;-79.438;2023-03-01T07:02:51;15.60;36.20
33580;DHT22;19909;43.644;-79.438;2023-03-01T07:05:17;15.50;36.20
33580;DHT22;19909;43.644;-79.438;2023-03-01T07:07:44;15.60;36.30
33580;DHT22;19909;43.644;-79.438;2023-03-01T07:10:11;15.50;36.20
33580;DHT22;19909;43.644;-79.438;2023-03-01T07:12:37;15.50;36.10
33580;DHT22;19909;43.644;-79.438;2023-03-01T07:15:04;15.50;36.10
33580;DHT22;19909;43.644;-79.438;2023-03-01T07:17:30;15.50;36.20
33580;DHT22;19909;43.644;-79.438;2023-03-01T07:19:56;15.50;36.20
33580;DHT22;19909;43.644;-79.438;2023-03-01T07:22:23;15.50;36.90
33580;DHT22;19909;43.644;-79.438;2023-03-01T07:24:49;15.50;36.20
33580;DHT22;19909;43.644;-79.438;2023-03-01T07:27:15;15.60;36.20
33580;DHT22;19909;43.644;-79.438;2023-03-01T07:29:41;15.50;36.20
33580;DHT22;19909;43.644;-79.438;2023-03-01T07:32:07;15.50;36.10
33580;DHT22;19909;43.644;-79.438;2023-03-01T07:34:34;15.50;36.20
33580;DHT22;19909;43.644;-79.438;2023-03-01T07:37:00;15.50;36.20
33580;DHT22;19909;43.644;-79.438;2023-03-01T07:39:26;15.50;36.30
33580;DHT22;19909;43.644;-79.438;2023-03-01T07:41:53;15.50;36.20
33580;DHT22;19909;43.644;-79.438;2023-03-01T07:44:19;15.50;36.20
33580;DHT22;19909;43.644;-79.438;2023-03-01T07:46:45;15.50;36.10
33580;DHT22;19909;43.644;-79.438;2023-03-01T07:49:12;15.50;36.10
33580;DHT22;19909;43.644;-79.438;2023-03-01T07:51:38;15.50;36.20
33580;DHT22;19909;43.644;-79.438;2023-03-01T07:54:04;15.50;36.50
33580;DHT22;19909;43.644;-79.438;2023-03-01T07:56:31;15.50;36.20
33580;DHT22;19909;43.644;-79.438;2023-03-01T07:58:59;15.50;36.20
33580;DHT22;19909;43.644;-79.438;2023-03-01T08:01:25;15.50;36.10
33580;DHT22;19909;43.644;-79.438;2023-03-01T08:03:51;15.50;36.20
33580;DHT22;19909;43.644;-79.438;2023-03-01T08:06:18;15.50;36.30
33580;DHT22;19909;43.644;-79.438;2023-03-01T08:08:44;15.50;36.30
33580;DHT22;19909;43.644;-79.438;2023-03-01T08:11:12;15.50;36.20
33580;DHT22;19909;43.644;-79.438;2023-03-01T08:13:39;15.50;36.20
33580;DHT22;19909;43.644;-79.438;2023-03-01T08:16:11;15.50;36.10
33580;DHT22;19909;43.644;-79.438;2023-03-01T08:18:38;15.50;36.20
33580;DHT22;19909;43.644;-79.438;2023-03-01T08:21:06;15.50;36.20
33580;DHT22;19909;43.644;-79.438;2023-03-01T08:23:33;15.50;36.20
33580;DHT22;19909;43.644;-79.438;2023-03-01T08:26:10;15.60;36.20
33580;DHT22;19909;43.644;-79.438;2023-03-01T08:28:37;15.70;36.40
33580;DHT22;19909;43.644;-79.438;2023-03-01T08:33:43;15.80;36.70
33580;DHT22;19909;43.644;-79.438;2023-03-01T08:36:09;15.80;36.40
33580;DHT22;19909;43.644;-79.438;2023-03-01T08:38:35;15.80;36.30
33580;DHT22;19909;43.644;-79.438;2023-03-01T08:41:03;15.80;36.20
33580;DHT22;19909;43.644;-79.438;2023-03-01T08:43:29;15.80;36.40
33580;DHT22;19909;43.644;-79.438;2023-03-01T08:45:56;15.80;36.50
33580;DHT22;19909;43.644;-79.438;2023-03-01T08:48:22;15.80;36.50
33580;DHT22;19909;43.644;-79.438;2023-03-01T08:50:48;15.80;36.50
33580;DHT22;19909;43.644;-79.438;2023-03-01T08:53:14;15.70;36.40
33580;DHT22;19909;43.644;-79.438;2023-03-01T08:55:40;15.80;36.40
33580;DHT22;19909;43.644;-79.438;2023-03-01T08:58:06;15.70;36.30
33580;DHT22;19909;43.644;-79.438;2023-03-01T09:00:33;15.80;36.20
33580;DHT22;19909;43.644;-79.438;2023-03-01T09:03:01;15.70;36.30
33580;DHT22;19909;43.644;-79.438;2023-03-01T09:05:27;15.80;36.40
33580;DHT22;19909;43.644;-79.438;2023-03-01T09:07:53;15.70;36.30
33580;DHT22;19909;43.644;-79.438;2023-03-01T09:10:19;15.70;36.30
33580;DHT22;19909;43.644;-79.438;2023-03-01T09:12:45;15.70;36.20
33580;DHT22;19909;43.644;-79.438;2023-03-01T09:15:12;15.70;36.20
33580;DHT22;19909;43.644;-79.438;2023-03-01T09:17:38;15.70;36.30
33580;DHT22;19909;43.644;-79.438;2023-03-01T09:20:04;15.70;36.30
33580;DHT22;19909;43.644;-79.438;2023-03-01T09:22:33;15.70;36.40
33580;DHT22;19909;43.644;-79.438;2023-03-01T09:25:00;15.70;36.40
33580;DHT22;19909;43.644;-79.438;2023-03-01T09:27:27;15.70;36.20
33580;DHT22;19909;43.644;-79.438;2023-03-01T09:29:53;15.70;36.30
33580;DHT22;19909;43.644;-79.438;2023-03-01T09:32:22;15.70;36.30
33580;DHT22;19909;43.644;-79.438;2023-03-01T09:34:48;15.70;36.30
33580;DHT22;19909;43.644;-79.438;2023-03-01T09:37:27;15.70;36.30
33580;DHT22;19909;43.644;-79.438;2023-03-01T09:39:53;15.60;36.30
33580;DHT22;19909;43.644;-79.438;2023-03-01T09:42:19;15.70;36.30
33580;DHT22;19909;43.644;-79.438;2023-03-01T09:45:14;15.70;36.20
33580;DHT22;19909;43.644;-79.438;2023-03-01T09:47:45;15.70;36.20
33580;DHT22;19909;43.644;-79.438;2023-03-01T09:50:14;15.70;36.30
33580;DHT22;19909;43.644;-79.438;2023-03-01T09:52:53;15.60;36.20
33580;DHT22;19909;43.644;-79.438;2023-03-01T09:55:52;15.60;36.30
33580;DHT22;19909;43.644;-79.438;2023-03-01T09:58:39;15.60;36.20
33580;DHT22;19909;43.644;-79.438;2023-03-01T10:09:42;15.60;36.30
33580;DHT22;19909;43.644;-79.438;2023-03-01T10:12:22;15.60;36.30
33580;DHT22;19909;43.644;-79.438;2023-03-01T10:17:58;15.60;36.20
33580;DHT22;19909;43.644;-79.438;2023-03-01T10:20:33;15.60;36.30
33580;DHT22;19909;43.644;-79.438;2023-03-01T10:23:03;15.70;36.10
33580;DHT22;19909;43.644;-79.438;2023-03-01T10:29:07;15.80;36.60
33580;DHT22;19909;43.644;-79.438;2023-03-01T10:31:50;15.80;36.60
33580;DHT22;19909;43.644;-79.438;2023-03-01T10:36:45;15.90;36.50
33580;DHT22;19909;43.644;-79.438;2023-03-01T10:39:17;15.90;36.20
33580;DHT22;19909;43.644;-79.438;2023-03-01T10:44:38;15.90;36.50
33580;DHT22;19909;43.644;-79.438;2023-03-01T10:47:08;15.90;36.60
33580;DHT22;19909;43.644;-79.438;2023-03-01T10:49:38;15.80;36.60
33580;DHT22;19909;43.644;-79.438;2023-03-01T10:52:18;15.80;36.50
33580;DHT22;19909;43.644;-79.438;2023-03-01T10:58:24;15.80;36.40
33580;DHT22;19909;43.644;-79.438;2023-03-01T11:00:53;15.80;36.30
33580;DHT22;19909;43.644;-79.438;2023-03-01T11:03:39;15.80;36.40
33580;DHT22;19909;43.644;-79.438;2023-03-01T11:13:51;15.80;36.40
33580;DHT22;19909;43.644;-79.438;2023-03-01T11:16:25;15.80;36.30
33580;DHT22;19909;43.644;-79.438;2023-03-01T11:19:00;15.80;36.40
33580;DHT22;19909;43.644;-79.438;2023-03-01T11:21:29;15.80;36.40
33580;DHT22;19909;43.644;-79.438;2023-03-01T11:24:00;15.80;36.30
33580;DHT22;19909;43.644;-79.438;2023-03-01T11:26:28;15.80;36.40
33580;DHT22;19909;43.644;-79.438;2023-03-01T11:29:11;15.80;36.40
33580;DHT22;19909;43.644;-79.438;2023-03-01T11:31:40;15.80;36.30
33580;DHT22;19909;43.644;-79.438;2023-03-01T11:34:15;15.80;36.50
33580;DHT22;19909;43.644;-79.438;2023-03-01T11:36:54;15.70;36.40
33580;DHT22;19909;43.644;-79.438;2023-03-01T11:39:37;15.70;36.40
33580;DHT22;19909;43.644;-79.438;2023-03-01T11:42:18;15.80;36.40
33580;DHT22;19909;43.644;-79.438;2023-03-01T11:44:48;15.80;36.40
33580;DHT22;19909;43.644;-79.438;2023-03-01T11:57:06;15.70;36.40
33580;DHT22;19909;43.644;-79.438;2023-03-01T12:00:02;15.70;36.40
33580;DHT22;19909;43.644;-79.438;2023-03-01T12:02:52;15.70;36.50
33580;DHT22;19909;43.644;-79.438;2023-03-01T12:29:48;15.70;36.50
33580;DHT22;19909;43.644;-79.438;2023-03-01T12:44:10;15.70;36.50
33580;DHT22;19909;43.644;-79.438;2023-03-01T12:47:02;15.70;36.50
33580;DHT22;19909;43.644;-79.438;2023-03-01T12:50:17;15.70;36.60
33580;DHT22;19909;43.644;-79.438;2023-03-01T12:53:03;15.70;36.60
33580;DHT22;19909;43.644;-79.438;2023-03-01T12:55:29;15.60;36.50
33580;DHT22;19909;43.644;-79.438;2023-03-01T13:00:45;15.60;36.50
33580;DHT22;19909;43.644;-79.438;2023-03-01T13:06:19;15.60;36.70
33580;DHT22;19909;43.644;-79.438;2023-03-01T13:09:05;15.60;36.60
33580;DHT22;19909;43.644;-79.438;2023-03-01T13:11:33;15.60;36.60
33580;DHT22;19909;43.644;-79.438;2023-03-01T13:16:52;15.60;36.50
33580;DHT22;19909;43.644;-79.438;2023-03-01T13:21:48;15.60;36.60
33580;DHT22;19909;43.644;-79.438;2023-03-01T13:24:40;15.60;36.60
33580;DHT22;19909;43.644;-79.438;2023-03-01T13:32:25;15.60;36.50
33580;DHT22;19909;43.644;-79.438;2023-03-01T13:34:56;15.60;36.60
33580;DHT22;19909;43.644;-79.438;2023-03-01T13:37:37;15.60;36.60
33580;DHT22;19909;43.644;-79.438;2023-03-01T13:42:53;15.60;36.50
33580;DHT22;19909;43.644;-79.438;2023-03-01T13:47:57;15.60;36.50
33580;DHT22;19909;43.644;-79.438;2023-03-01T13:50:27;15.60;36.60
33580;DHT22;19909;43.644;-79.438;2023-03-01T13:52:58;15.60;36.50
33580;DHT22;19909;43.644;-79.438;2023-03-01T14:00:56;15.80;36.80
33580;DHT22;19909;43.644;-79.438;2023-03-01T14:03:23;15.80;36.90
33580;DHT22;19909;43.644;-79.438;2023-03-01T14:08:28;15.90;36.70
33580;DHT22;19909;43.644;-79.438;2023-03-01T14:16:32;15.90;36.70
33580;DHT22;19909;43.644;-79.438;2023-03-01T14:19:18;15.90;36.70
33580;DHT22;19909;43.644;-79.438;2023-03-01T14:21:47;15.90;36.70
33580;DHT22;19909;43.644;-79.438;2023-03-01T14:24:33;15.80;36.60
33580;DHT22;19909;43.644;-79.438;2023-03-01T14:27:01;15.80;36.70
33580;DHT22;19909;43.644;-79.438;2023-03-01T14:29:34;15.80;36.70
33580;DHT22;19909;43.644;-79.438;2023-03-01T14:34:44;15.80;36.70
33580;DHT22;19909;43.644;-79.438;2023-03-01T14:39:48;15.80;36.60
33580;DHT22;19909;43.644;-79.438;2023-03-01T14:42:15;15.80;36.60
33580;DHT22;19909;43.644;-79.438;2023-03-01T14:44:44;15.80;36.50
33580;DHT22;19909;43.644;-79.438;2023-03-01T14:47:15;15.80;36.50
33580;DHT22;19909;43.644;-79.438;2023-03-01T14:49:46;15.80;36.50
33580;DHT22;19909;43.644;-79.438;2023-03-01T14:52:21;15.80;36.50
33580;DHT22;19909;43.644;-79.438;2023-03-01T14:54:51;15.80;36.60
33580;DHT22;19909;43.644;-79.438;2023-03-01T14:57:24;15.80;36.50
33580;DHT22;19909;43.644;-79.438;2023-03-01T14:59:53;15.80;36.50
33580;DHT22;19909;43.644;-79.438;2023-03-01T15:02:26;15.80;36.40
33580;DHT22;19909;43.644;-79.438;2023-03-01T15:05:00;15.80;36.50
33580;DHT22;19909;43.644;-79.438;2023-03-01T15:07:30;15.80;36.70
33580;DHT22;19909;43.644;-79.438;2023-03-01T15:09:59;15.80;36.70
33580;DHT22;19909;43.644;-79.438;2023-03-01T15:14:55;15.80;36.50
33580;DHT22;19909;43.644;-79.438;2023-03-01T15:17:36;15.80;36.50
33580;DHT22;19909;43.644;-79.438;2023-03-01T15:20:15;15.70;36.50
33580;DHT22;19909;43.644;-79.438;2023-03-01T15:22:46;15.80;36.60
33580;DHT22;19909;43.644;-79.438;2023-03-01T15:25:17;15.80;36.60
33580;DHT22;19909;43.644;-79.438;2023-03-01T15:27:48;15.80;36.60
33580;DHT22;19909;43.644;-79.438;2023-03-01T15:30:28;15.80;36.50
33580;DHT22;19909;43.644;-79.438;2023-03-01T15:33:20;15.70;36.50
33580;DHT22;19909;43.644;-79.438;2023-03-01T15:35:54;15.70;36.50
33580;DHT22;19909;43.644;-79.438;2023-03-01T15:40:54;15.70;36.50
33580;DHT22;19909;43.644;-79.438;2023-03-01T15:43:57;15.70;36.60
33580;DHT22;19909;43.644;-79.438;2023-03-01T15:46:32;15.70;36.50
33580;DHT22;19909;43.644;-79.438;2023-03-01T15:49:04;15.70;36.50
33580;DHT22;19909;43.644;-79.438;2023-03-01T15:51:36;15.70;36.50
33580;DHT22;19909;43.644;-79.438;2023-03-01T15:54:18;15.70;36.50
33580;DHT22;19909;43.644;-79.438;2023-03-01T15:56:45;15.70;36.50
33580;DHT22;19909;43.644;-79.438;2023-03-01T15:59:12;15.70;36.50
33580;DHT22;19909;43.644;-79.438;2023-03-01T16:01:42;15.70;36.50
33580;DHT22;19909;43.644;-79.438;2023-03-01T16:04:12;15.70;36.40
33580;DHT22;19909;43.644;-79.438;2023-03-01T16:06:42;15.70;36.50
33580;DHT22;19909;43.644;-79.438;2023-03-01T16:09:08;15.70;36.50
33580;DHT22;19909;43.644;-79.438;2023-03-01T16:11:35;15.70;36.60
33580;DHT22;19909;43.644;-79.438;2023-03-01T16:14:02;15.70;36.30
33580;DHT22;19909;43.644;-79.438;2023-03-01T16:16:29;15.70;36.60
33580;DHT22;19909;43.644;-79.438;2023-03-01T16:18:55;15.70;36.90
33580;DHT22;19909;43.644;-79.438;2023-03-01T16:21:23;15.70;36.40
33580;DHT22;19909;43.644;-79.438;2023-03-01T16:23:51;15.70;36.40
33580;DHT22;19909;43.644;-79.438;2023-03-01T16:26:18;15.70;36.40
33580;DHT22;19909;43.644;-79.438;2023-03-01T16:28:45;15.70;36.30
33580;DHT22;19909;43.644;-79.438;2023-03-01T16:31:12;15.70;36.30
33580;DHT22;19909;43.644;-79.438;2023-03-01T16:33:42;15.70;36.30
33580;DHT22;19909;43.644;-79.438;2023-03-01T16:36:12;15.70;36.30
33580;DHT22;19909;43.644;-79.438;2023-03-01T16:38:38;15.70;36.40
33580;DHT22;19909;43.644;-79.438;2023-03-01T16:41:05;15.70;36.30
33580;DHT22;19909;43.644;-79.438;2023-03-01T16:43:31;15.60;36.30
33580;DHT22;19909;43.644;-79.438;2023-03-01T16:45:58;15.70;36.30
33580;DHT22;19909;43.644;-79.438;2023-03-01T16:48:25;15.70;36.40
33580;DHT22;19909;43.644;-79.438;2023-03-01T16:50:58;15.70;36.40
33580;DHT22;19909;43.644;-79.438;2023-03-01T16:53:26;15.70;36.40
33580;DHT22;19909;43.644;-79.438;2023-03-01T16:55:59;15.70;36.40
33580;DHT22;19909;43.644;-79.438;2023-03-01T16:58:25;15.70;36.40
33580;DHT22;19909;43.644;-79.438;2023-03-01T17:00:52;15.70;36.30
33580;DHT22;19909;43.644;-79.438;2023-03-01T17:03:23;15.70;36.30
33580;DHT22;19909;43.644;-79.438;2023-03-01T17:05:50;15.70;36.40
33580;DHT22;19909;43.644;-79.438;2023-03-01T17:08:17;15.70;36.50
33580;DHT22;19909;43.644;-79.438;2023-03-01T17:10:43;15.70;36.40
33580;DHT22;19909;43.644;-79.438;2023-03-01T17:13:10;15.70;36.40
33580;DHT22;19909;43.644;-79.438;2023-03-01T17:15:41;15.70;36.30
33580;DHT22;19909;43.644;-79.438;2023-03-01T17:18:08;15.70;36.40
33580;DHT22;19909;43.644;-79.438;2023-03-01T17:20:35;15.70;36.50
33580;DHT22;19909;43.644;-79.438;2023-03-01T17:23:02;15.60;36.40
33580;DHT22;19909;43.644;-79.438;2023-03-01T17:25:29;15.60;36.30
33580;DHT22;19909;43.644;-79.438;2023-03-01T17:27:55;15.60;36.30
33580;DHT22;19909;43.644;-79.438;2023-03-01T17:30:21;15.70;36.40
33580;DHT22;19909;43.644;-79.438;2023-03-01T17:32:47;15.60;36.30
33580;DHT22;19909;43.644;-79.438;2023-03-01T17:35:14;15.60;36.40
33580;DHT22;19909;43.644;-79.438;2023-03-01T17:37:40;15.60;36.40
33580;DHT22;19909;43.644;-79.438;2023-03-01T17:40:11;15.60;36.40
33580;DHT22;19909;43.644;-79.438;2023-03-01T17:42:37;15.60;36.40